sensor_id;sensor_type;location;lat;lon;timestamp;pressure;altitude;pressure_sealevel;temperature;humidity
4024;BME280;2026;51.002;13.668;2023-04-09T00:01:23;99954.84;;;2.31;91.87
4024;BME280;2026;51.002;13.668;2023-04-09T00:06:26;99952.78;;;2.15;92.79
4024;BME280;2026;51.002;13.668;2023-04-09T00:11:29;99948.25;;;1.98;92.83
4024;BME280;2026;51.002;13.668;2023-04-09T00:16:33;99948.66;;;1.93;92.38
4024;BME280;2026;51.002;13.668;2023-04-09T00:21:36;99947.97;;;1.91;91.99
4024;BME280;2026;51.002;13.668;2023-04-09T00:26:39;99952.44;;;1.89;91.87
4024;BME280;2026;51.002;13.668;2023-04-09T00:31:44;99953.69;;;1.85;92.12
4024;BME280;2026;51.002;13.668;2023-04-09T00:36:47;99948.31;;;1.66;92.93
4024;BME280;2026;51.002;13.668;2023-04-09T00:41:49;99936.06;;;1.68;92.78
4024;BME280;2026;51.002;13.668;2023-04-09T00:46:59;99939.59;;;1.67;93.03
4024;BME280;2026;51.002;13.668;2023-04-09T00:52:02;99939.00;;;1.54;92.87
4024;BME280;2026;51.002;13.668;2023-04-09T00:57:05;99937.97;;;1.66;91.98
4024;BME280;2026;51.002;13.668;2023-04-09T01:02:10;99952.91;;;1.63;92.50
4024;BME280;2026;51.002;13.668;2023-04-09T01:07:19;99951.75;;;1.36;93.86
4024;BME280;2026;51.002;13.668;2023-04-09T01:12:30;99955.63;;;1.61;93.36
4024;BME280;2026;51.002;13.668;2023-04-09T01:17:40;99952.81;;;1.64;93.32
4024;BME280;2026;51.002;13.668;2023-04-09T01:22:56;99950.78;;;1.68;93.79
4024;BME280;2026;51.002;13.668;2023-04-09T01:28:13;99959.47;;;1.67;93.59
4024;BME280;2026;51.002;13.668;2023-04-09T01:33:18;99959.84;;;1.62;94.46
4024;BME280;2026;51.002;13.668;2023-04-09T01:38:22;99959.56;;;1.56;95.15
4024;BME280;2026;51.002;13.668;2023-04-09T01:43:28;99962.75;;;1.69;94.40
4024;BME280;2026;51.002;13.668;2023-04-09T01:48:32;99955.13;;;1.36;95.74
4024;BME280;2026;51.002;13.668;2023-04-09T01:53:36;99966.75;;;1.21;96.71
4024;BME280;2026;51.002;13.668;2023-04-09T01:58:40;99963.16;;;1.33;95.19
4024;BME280;2026;51.002;13.668;2023-04-09T02:03:45;99977.13;;;1.31;94.86
4024;BME280;2026;51.002;13.668;2023-04-09T02:08:51;99973.38;;;1.13;96.49
4024;BME280;2026;51.002;13.668;2023-04-09T02:13:57;99972.34;;;1.26;95.46
4024;BME280;2026;51.002;13.668;2023-04-09T02:19:00;99968.00;;;1.26;94.45
4024;BME280;2026;51.002;13.668;2023-04-09T02:24:03;99973.09;;;1.38;94.18
4024;BME280;2026;51.002;13.668;2023-04-09T02:29:07;99974.94;;;1.26;94.15
4024;BME280;2026;51.002;13.668;2023-04-09T02:34:10;99970.56;;;1.17;94.24
4024;BME280;2026;51.002;13.668;2023-04-09T02:39:13;99973.69;;;1.20;93.83
4024;BME280;2026;51.002;13.668;2023-04-09T02:44:18;99976.06;;;1.33;93.20
4024;BME280;2026;51.002;13.668;2023-04-09T02:49:21;99970.09;;;1.11;93.13
4024;BME280;2026;51.002;13.668;2023-04-09T02:54:24;99966.97;;;0.87;95.13
4024;BME280;2026;51.002;13.668;2023-04-09T02:59:28;99964.81;;;0.92;94.81
4024;BME280;2026;51.002;13.668;2023-04-09T03:04:33;99979.03;;;1.07;94.00
4024;BME280;2026;51.002;13.668;2023-04-09T03:09:36;99972.75;;;1.00;93.65
4024;BME280;2026;51.002;13.668;2023-04-09T03:14:40;99981.19;;;1.02;93.54
4024;BME280;2026;51.002;13.668;2023-04-09T03:19:43;99974.06;;;0.94;93.63
4024;BME280;2026;51.002;13.668;2023-04-09T03:24:48;99980.88;;;0.95;93.47
4024;BME280;2026;51.002;13.668;2023-04-09T03:29:55;99969.47;;;0.98;93.34
4024;BME280;2026;51.002;13.668;2023-04-09T03:35:08;99971.88;;;0.90;94.36
4024;BME280;2026;51.002;13.668;2023-04-09T03:40:12;99972.81;;;1.10;93.68
4024;BME280;2026;51.002;13.668;2023-04-09T03:45:17;99974.00;;;1.06;94.26
4024;BME280;2026;51.002;13.668;2023-04-09T03:50:22;99972.22;;;1.06;94.72
4024;BME280;2026;51.002;13.668;2023-04-09T03:55:29;99977.84;;;1.11;94.64
4024;BME280;2026;51.002;13.668;2023-04-09T04:00:36;99973.75;;;1.09;95.18
4024;BME280;2026;51.002;13.668;2023-04-09T04:06:04;99973.63;;;1.10;95.59
4024;BME280;2026;51.002;13.668;2023-04-09T04:11:18;99969.84;;;1.15;95.67
4024;BME280;2026;51.002;13.668;2023-04-09T04:16:23;99974.50;;;1.21;95.77
4024;BME280;2026;51.002;13.668;2023-04-09T04:21:27;99976.91;;;1.44;95.66
4024;BME280;2026;51.002;13.668;2023-04-09T04:26:34;99982.47;;;1.39;95.74
4024;BME280;2026;51.002;13.668;2023-04-09T04:31:39;99976.47;;;1.38;95.64
4024;BME280;2026;51.002;13.668;2023-04-09T04:36:42;99974.56;;;1.31;96.43
4024;BME280;2026;51.002;13.668;2023-04-09T04:41:46;99987.78;;;1.37;96.44
4024;BME280;2026;51.002;13.668;2023-04-09T04:46:56;99983.72;;;1.45;96.15
4024;BME280;2026;51.002;13.668;2023-04-09T04:51:59;99990.41;;;1.47;96.28
4024;BME280;2026;51.002;13.668;2023-04-09T04:57:02;99992.59;;;1.52;96.90
4024;BME280;2026;51.002;13.668;2023-04-09T05:02:13;99988.38;;;1.51;97.45
4024;BME280;2026;51.002;13.668;2023-04-09T05:07:43;99984.28;;;1.79;96.31
4024;BME280;2026;51.002;13.668;2023-04-09T05:12:46;99985.91;;;1.80;96.18
4024;BME280;2026;51.002;13.668;2023-04-09T05:18:00;99989.47;;;1.89;96.33
4024;BME280;2026;51.002;13.668;2023-04-09T05:23:03;99989.00;;;2.15;95.51
4024;BME280;2026;51.002;13.668;2023-04-09T05:28:13;99987.47;;;2.03;95.56
4024;BME280;2026;51.002;13.668;2023-04-09T05:33:20;99992.44;;;2.26;95.69
4024;BME280;2026;51.002;13.668;2023-04-09T05:38:24;100005.91;;;2.39;95.93
4024;BME280;2026;51.002;13.668;2023-04-09T05:43:31;100003.06;;;2.62;95.76
4024;BME280;2026;51.002;13.668;2023-04-09T05:48:35;100007.38;;;3.30;94.24
4024;BME280;2026;51.002;13.668;2023-04-09T05:53:39;100009.00;;;3.69;92.51
4024;BME280;2026;51.002;13.668;2023-04-09T05:58:44;100012.56;;;4.42;90.36
4024;BME280;2026;51.002;13.668;2023-04-09T06:03:49;100012.06;;;5.20;86.32
4024;BME280;2026;51.002;13.668;2023-04-09T06:08:56;100009.84;;;3.98;90.47
4024;BME280;2026;51.002;13.668;2023-04-09T06:13:59;99999.97;;;5.37;86.72
4024;BME280;2026;51.002;13.668;2023-04-09T06:19:03;99998.00;;;5.57;85.35
4024;BME280;2026;51.002;13.668;2023-04-09T06:24:06;99999.66;;;6.18;83.37
4024;BME280;2026;51.002;13.668;2023-04-09T06:29:09;99991.75;;;7.02;81.53
4024;BME280;2026;51.002;13.668;2023-04-09T06:34:14;99993.56;;;7.67;81.44
4024;BME280;2026;51.002;13.668;2023-04-09T06:39:16;99999.72;;;6.51;80.65
4024;BME280;2026;51.002;13.668;2023-04-09T06:44:19;100000.22;;;7.04;80.43
4024;BME280;2026;51.002;13.668;2023-04-09T06:49:26;99998.41;;;8.10;78.53
4024;BME280;2026;51.002;13.668;2023-04-09T06:54:29;100007.88;;;7.79;77.69
4024;BME280;2026;51.002;13.668;2023-04-09T06:59:32;100010.34;;;7.81;77.57
4024;BME280;2026;51.002;13.668;2023-04-09T07:04:36;100002.22;;;8.77;75.63
4024;BME280;2026;51.002;13.668;2023-04-09T07:09:39;100014.56;;;7.82;78.38
4024;BME280;2026;51.002;13.668;2023-04-09T07:14:42;100014.81;;;8.04;78.61
4024;BME280;2026;51.002;13.668;2023-04-09T07:19:46;100011.94;;;9.60;76.02
4024;BME280;2026;51.002;13.668;2023-04-09T07:24:50;100011.59;;;10.59;71.09
4024;BME280;2026;51.002;13.668;2023-04-09T07:29:56;100006.97;;;10.83;70.37
4024;BME280;2026;51.002;13.668;2023-04-09T07:35:02;100017.41;;;9.96;69.81
4024;BME280;2026;51.002;13.668;2023-04-09T07:40:06;100011.03;;;10.64;69.54
4024;BME280;2026;51.002;13.668;2023-04-09T07:45:09;100006.31;;;10.74;68.40
4024;BME280;2026;51.002;13.668;2023-04-09T07:50:14;100016.72;;;11.46;67.91
4024;BME280;2026;51.002;13.668;2023-04-09T07:55:17;100015.28;;;11.79;64.89
4024;BME280;2026;51.002;13.668;2023-04-09T08:00:20;100013.03;;;10.62;66.04
4024;BME280;2026;51.002;13.668;2023-04-09T08:05:25;100018.13;;;9.29;71.96
4024;BME280;2026;51.002;13.668;2023-04-09T08:10:28;100024.72;;;10.00;69.07
4024;BME280;2026;51.002;13.668;2023-04-09T08:15:31;100013.66;;;10.64;67.56
4024;BME280;2026;51.002;13.668;2023-04-09T08:20:36;100013.00;;;11.34;64.48
4024;BME280;2026;51.002;13.668;2023-04-09T08:25:45;100006.44;;;10.66;64.43
4024;BME280;2026;51.002;13.668;2023-04-09T08:30:48;100004.50;;;11.32;63.80
4024;BME280;2026;51.002;13.668;2023-04-09T08:35:52;100009.59;;;11.40;63.09
4024;BME280;2026;51.002;13.668;2023-04-09T08:40:55;100020.31;;;11.10;63.17
4024;BME280;2026;51.002;13.668;2023-04-09T08:45:59;100019.41;;;12.02;60.06
4024;BME280;2026;51.002;13.668;2023-04-09T08:51:05;100028.59;;;11.77;60.70
4024;BME280;2026;51.002;13.668;2023-04-09T08:56:08;100044.09;;;11.08;62.92
4024;BME280;2026;51.002;13.668;2023-04-09T09:01:18;100036.22;;;11.65;60.98
4024;BME280;2026;51.002;13.668;2023-04-09T09:06:24;100018.75;;;10.94;62.57
4024;BME280;2026;51.002;13.668;2023-04-09T09:11:29;100029.84;;;10.67;64.42
4024;BME280;2026;51.002;13.668;2023-04-09T09:16:33;100028.53;;;10.56;65.57
4024;BME280;2026;51.002;13.668;2023-04-09T09:21:38;100030.78;;;11.38;63.47
4024;BME280;2026;51.002;13.668;2023-04-09T09:26:41;100039.69;;;11.09;63.94
4024;BME280;2026;51.002;13.668;2023-04-09T09:31:48;100041.25;;;10.38;66.02
4024;BME280;2026;51.002;13.668;2023-04-09T09:36:53;100023.22;;;12.88;60.88
4024;BME280;2026;51.002;13.668;2023-04-09T09:42:06;100018.16;;;11.91;59.96
4024;BME280;2026;51.002;13.668;2023-04-09T09:47:11;100020.06;;;11.05;64.54
4024;BME280;2026;51.002;13.668;2023-04-09T09:52:20;100010.78;;;11.73;63.09
4024;BME280;2026;51.002;13.668;2023-04-09T09:57:28;100008.16;;;12.35;60.10
4024;BME280;2026;51.002;13.668;2023-04-09T10:02:40;100010.63;;;12.63;60.51
4024;BME280;2026;51.002;13.668;2023-04-09T10:07:47;100009.13;;;12.14;61.09
4024;BME280;2026;51.002;13.668;2023-04-09T10:12:51;100000.50;;;12.87;60.53
4024;BME280;2026;51.002;13.668;2023-04-09T10:17:54;99994.47;;;11.84;61.11
4024;BME280;2026;51.002;13.668;2023-04-09T10:23:02;99986.53;;;12.53;60.82
4024;BME280;2026;51.002;13.668;2023-04-09T10:28:14;99977.03;;;13.19;57.46
4024;BME280;2026;51.002;13.668;2023-04-09T10:33:21;99988.69;;;12.02;61.40
4024;BME280;2026;51.002;13.668;2023-04-09T10:38:35;99988.09;;;12.14;61.70
4024;BME280;2026;51.002;13.668;2023-04-09T10:43:39;99983.75;;;11.08;62.86
4024;BME280;2026;51.002;13.668;2023-04-09T10:48:42;99977.25;;;10.76;64.67
4024;BME280;2026;51.002;13.668;2023-04-09T10:53:50;99971.44;;;11.09;62.62
4024;BME280;2026;51.002;13.668;2023-04-09T10:58:54;99971.38;;;12.55;61.64
4024;BME280;2026;51.002;13.668;2023-04-09T11:04:07;99970.56;;;12.61;59.42
4024;BME280;2026;51.002;13.668;2023-04-09T11:09:12;99958.41;;;12.47;59.31
4024;BME280;2026;51.002;13.668;2023-04-09T11:14:18;99969.69;;;12.20;59.71
4024;BME280;2026;51.002;13.668;2023-04-09T11:19:22;99963.28;;;12.90;58.38
4024;BME280;2026;51.002;13.668;2023-04-09T11:24:26;99969.59;;;11.73;61.29
4024;BME280;2026;51.002;13.668;2023-04-09T11:29:41;99969.34;;;13.18;57.89
4024;BME280;2026;51.002;13.668;2023-04-09T11:34:44;99975.88;;;14.07;57.33
4024;BME280;2026;51.002;13.668;2023-04-09T11:39:48;99969.34;;;12.98;56.89
4024;BME280;2026;51.002;13.668;2023-04-09T11:44:57;99972.38;;;14.20;55.34
4024;BME280;2026;51.002;13.668;2023-04-09T11:50:01;99960.78;;;13.36;58.02
4024;BME280;2026;51.002;13.668;2023-04-09T11:55:07;99961.25;;;12.65;57.60
4024;BME280;2026;51.002;13.668;2023-04-09T12:00:11;99961.66;;;12.49;56.61
4024;BME280;2026;51.002;13.668;2023-04-09T12:05:21;99958.72;;;13.45;56.06
4024;BME280;2026;51.002;13.668;2023-04-09T12:10:30;99959.41;;;13.13;57.42
4024;BME280;2026;51.002;13.668;2023-04-09T12:15:34;99968.13;;;13.07;56.26
4024;BME280;2026;51.002;13.668;2023-04-09T12:20:39;99959.41;;;13.72;53.11
4024;BME280;2026;51.002;13.668;2023-04-09T12:25:44;99944.50;;;14.81;52.39
4024;BME280;2026;51.002;13.668;2023-04-09T12:30:49;99958.03;;;14.09;54.69
4024;BME280;2026;51.002;13.668;2023-04-09T12:35:52;99957.19;;;12.29;58.28
4024;BME280;2026;51.002;13.668;2023-04-09T12:40:58;99956.81;;;12.73;59.30
4024;BME280;2026;51.002;13.668;2023-04-09T12:46:02;99951.19;;;14.58;57.23
4024;BME280;2026;51.002;13.668;2023-04-09T12:51:05;99959.91;;;13.56;53.15
4024;BME280;2026;51.002;13.668;2023-04-09T12:56:09;99947.69;;;13.61;54.92
4024;BME280;2026;51.002;13.668;2023-04-09T13:01:12;99945.59;;;14.48;52.29
4024;BME280;2026;51.002;13.668;2023-04-09T13:06:15;99947.31;;;13.65;50.43
4024;BME280;2026;51.002;13.668;2023-04-09T13:11:19;99941.19;;;13.71;51.40
4024;BME280;2026;51.002;13.668;2023-04-09T13:16:22;99927.16;;;14.16;51.48
4024;BME280;2026;51.002;13.668;2023-04-09T13:21:26;99928.50;;;13.47;53.34
4024;BME280;2026;51.002;13.668;2023-04-09T13:26:30;99930.13;;;13.94;52.23
4024;BME280;2026;51.002;13.668;2023-04-09T13:31:34;99923.03;;;13.49;55.08
4024;BME280;2026;51.002;13.668;2023-04-09T13:36:37;99919.22;;;13.84;52.55
4024;BME280;2026;51.002;13.668;2023-04-09T13:41:41;99908.16;;;14.33;52.55
4024;BME280;2026;51.002;13.668;2023-04-09T13:46:45;99921.78;;;13.58;53.72
4024;BME280;2026;51.002;13.668;2023-04-09T13:51:48;99906.41;;;13.55;54.02
4024;BME280;2026;51.002;13.668;2023-04-09T13:56:52;99914.16;;;13.37;55.22
4024;BME280;2026;51.002;13.668;2023-04-09T14:01:56;99905.13;;;13.19;54.68
4024;BME280;2026;51.002;13.668;2023-04-09T14:06:59;99905.88;;;13.33;56.03
4024;BME280;2026;51.002;13.668;2023-04-09T14:12:04;99884.56;;;14.12;51.10
4024;BME280;2026;51.002;13.668;2023-04-09T14:17:07;99898.25;;;13.11;53.46
4024;BME280;2026;51.002;13.668;2023-04-09T14:22:09;99898.50;;;12.62;53.97
4024;BME280;2026;51.002;13.668;2023-04-09T14:27:14;99898.31;;;12.71;54.30
4024;BME280;2026;51.002;13.668;2023-04-09T14:32:17;99901.34;;;12.74;53.62
4024;BME280;2026;51.002;13.668;2023-04-09T14:37:20;99893.28;;;13.42;53.20
4024;BME280;2026;51.002;13.668;2023-04-09T14:42:25;99895.44;;;13.58;49.82
4024;BME280;2026;51.002;13.668;2023-04-09T14:47:27;99875.06;;;14.05;50.31
4024;BME280;2026;51.002;13.668;2023-04-09T14:52:31;99885.28;;;13.62;50.32
4024;BME280;2026;51.002;13.668;2023-04-09T14:57:35;99875.69;;;13.74;51.00
4024;BME280;2026;51.002;13.668;2023-04-09T15:02:38;99870.72;;;13.07;52.35
4024;BME280;2026;51.002;13.668;2023-04-09T15:07:42;99875.41;;;13.05;53.18
4024;BME280;2026;51.002;13.668;2023-04-09T15:12:46;99879.78;;;13.25;53.36
4024;BME280;2026;51.002;13.668;2023-04-09T15:17:49;99872.63;;;12.73;53.19
4024;BME280;2026;51.002;13.668;2023-04-09T15:22:52;99874.19;;;12.87;49.77
4024;BME280;2026;51.002;13.668;2023-04-09T15:27:57;99858.66;;;12.38;51.54
4024;BME280;2026;51.002;13.668;2023-04-09T15:33:00;99873.44;;;12.53;50.47
4024;BME280;2026;51.002;13.668;2023-04-09T15:38:03;99862.81;;;13.00;50.58
4024;BME280;2026;51.002;13.668;2023-04-09T15:43:08;99862.75;;;13.27;49.42
4024;BME280;2026;51.002;13.668;2023-04-09T15:48:10;99863.09;;;12.65;48.18
4024;BME280;2026;51.002;13.668;2023-04-09T15:53:14;99864.78;;;13.25;43.06
4024;BME280;2026;51.002;13.668;2023-04-09T15:58:18;99858.66;;;12.65;45.25
4024;BME280;2026;51.002;13.668;2023-04-09T16:03:21;99863.81;;;12.99;46.47
4024;BME280;2026;51.002;13.668;2023-04-09T16:08:24;99863.63;;;13.01;47.58
4024;BME280;2026;51.002;13.668;2023-04-09T16:13:28;99861.09;;;13.33;47.47
4024;BME280;2026;51.002;13.668;2023-04-09T16:18:32;99860.88;;;12.69;48.77
4024;BME280;2026;51.002;13.668;2023-04-09T16:23:35;99863.09;;;12.65;48.38
4024;BME280;2026;51.002;13.668;2023-04-09T16:28:40;99867.97;;;12.41;51.18
4024;BME280;2026;51.002;13.668;2023-04-09T16:33:43;99863.34;;;12.50;52.41
4024;BME280;2026;51.002;13.668;2023-04-09T16:38:47;99861.72;;;12.42;52.93
4024;BME280;2026;51.002;13.668;2023-04-09T16:43:51;99862.13;;;12.39;51.36
4024;BME280;2026;51.002;13.668;2023-04-09T16:48:54;99864.94;;;12.44;53.14
4024;BME280;2026;51.002;13.668;2023-04-09T16:53:57;99868.81;;;12.42;54.75
4024;BME280;2026;51.002;13.668;2023-04-09T16:59:02;99871.22;;;12.23;55.85
4024;BME280;2026;51.002;13.668;2023-04-09T17:04:05;99873.44;;;11.99;56.87
4024;BME280;2026;51.002;13.668;2023-04-09T17:09:08;99873.81;;;12.09;57.02
4024;BME280;2026;51.002;13.668;2023-04-09T17:14:12;99873.44;;;11.99;57.91
4024;BME280;2026;51.002;13.668;2023-04-09T17:19:15;99875.44;;;11.97;58.58
4024;BME280;2026;51.002;13.668;2023-04-09T17:24:19;99881.53;;;12.11;59.28
4024;BME280;2026;51.002;13.668;2023-04-09T17:29:23;99882.31;;;11.91;59.84
4024;BME280;2026;51.002;13.668;2023-04-09T17:34:26;99877.66;;;11.87;60.69
4024;BME280;2026;51.002;13.668;2023-04-09T17:39:29;99889.94;;;11.73;62.14
4024;BME280;2026;51.002;13.668;2023-04-09T17:44:34;99895.75;;;11.54;63.02
4024;BME280;2026;51.002;13.668;2023-04-09T17:49:37;99888.91;;;11.18;64.92
4024;BME280;2026;51.002;13.668;2023-04-09T17:54:40;99890.09;;;11.09;65.35
4024;BME280;2026;51.002;13.668;2023-04-09T17:59:47;99893.22;;;10.91;66.38
4024;BME280;2026;51.002;13.668;2023-04-09T18:04:50;99891.94;;;10.80;66.39
4024;BME280;2026;51.002;13.668;2023-04-09T18:09:53;99896.50;;;10.71;66.82
4024;BME280;2026;51.002;13.668;2023-04-09T18:14:58;99897.69;;;10.68;66.88
4024;BME280;2026;51.002;13.668;2023-04-09T18:20:01;99894.06;;;10.41;68.08
4024;BME280;2026;51.002;13.668;2023-04-09T18:25:04;99905.75;;;10.38;67.95
4024;BME280;2026;51.002;13.668;2023-04-09T18:30:10;99904.63;;;10.26;68.70
4024;BME280;2026;51.002;13.668;2023-04-09T18:35:13;99916.88;;;10.18;69.32
4024;BME280;2026;51.002;13.668;2023-04-09T18:40:18;99919.13;;;10.00;70.39
4024;BME280;2026;51.002;13.668;2023-04-09T18:45:22;99927.28;;;9.90;70.80
4024;BME280;2026;51.002;13.668;2023-04-09T18:50:26;99929.66;;;9.70;71.47
4024;BME280;2026;51.002;13.668;2023-04-09T18:55:29;99935.91;;;9.54;71.90
4024;BME280;2026;51.002;13.668;2023-04-09T19:00:33;99925.28;;;9.55;72.47
4024;BME280;2026;51.002;13.668;2023-04-09T19:05:37;99931.13;;;9.27;73.30
4024;BME280;2026;51.002;13.668;2023-04-09T19:10:40;99930.91;;;9.44;73.26
4024;BME280;2026;51.002;13.668;2023-04-09T19:15:44;99924.81;;;9.36;73.02
4024;BME280;2026;51.002;13.668;2023-04-09T19:20:47;99919.59;;;9.36;72.34
4024;BME280;2026;51.002;13.668;2023-04-09T19:25:50;99923.19;;;9.20;73.60
4024;BME280;2026;51.002;13.668;2023-04-09T19:30:57;99920.13;;;9.17;73.64
4024;BME280;2026;51.002;13.668;2023-04-09T19:36:04;99924.34;;;9.18;74.40
4024;BME280;2026;51.002;13.668;2023-04-09T19:41:08;99929.75;;;9.16;75.44
4024;BME280;2026;51.002;13.668;2023-04-09T19:46:12;99923.34;;;9.19;74.87
4024;BME280;2026;51.002;13.668;2023-04-09T19:51:16;99920.84;;;9.10;76.07
4024;BME280;2026;51.002;13.668;2023-04-09T19:56:19;99920.13;;;9.17;75.53
4024;BME280;2026;51.002;13.668;2023-04-09T20:01:24;99928.56;;;8.89;76.38
4024;BME280;2026;51.002;13.668;2023-04-09T20:06:27;99916.59;;;8.94;76.00
4024;BME280;2026;51.002;13.668;2023-04-09T20:11:31;99928.94;;;8.86;76.73
4024;BME280;2026;51.002;13.668;2023-04-09T20:16:35;99935.53;;;8.81;76.84
4024;BME280;2026;51.002;13.668;2023-04-09T20:21:38;99931.09;;;8.67;77.75
4024;BME280;2026;51.002;13.668;2023-04-09T20:26:42;99937.00;;;8.61;78.27
4024;BME280;2026;51.002;13.668;2023-04-09T20:31:46;99925.56;;;8.62;78.22
4024;BME280;2026;51.002;13.668;2023-04-09T20:36:49;99923.03;;;8.53;78.37
4024;BME280;2026;51.002;13.668;2023-04-09T20:41:52;99936.72;;;8.55;78.39
4024;BME280;2026;51.002;13.668;2023-04-09T20:46:58;99924.09;;;8.59;78.82
4024;BME280;2026;51.002;13.668;2023-04-09T20:52:01;99914.72;;;8.50;79.09
4024;BME280;2026;51.002;13.668;2023-04-09T20:57:04;99923.91;;;8.22;79.62
4024;BME280;2026;51.002;13.668;2023-04-09T21:02:11;99922.13;;;8.23;79.44
4024;BME280;2026;51.002;13.668;2023-04-09T21:07:14;99931.22;;;8.04;80.41
4024;BME280;2026;51.002;13.668;2023-04-09T21:12:17;99928.88;;;7.85;80.75
4024;BME280;2026;51.002;13.668;2023-04-09T21:17:21;99929.56;;;7.79;81.09
4024;BME280;2026;51.002;13.668;2023-04-09T21:22:24;99925.22;;;7.63;81.28
4024;BME280;2026;51.002;13.668;2023-04-09T21:27:27;99937.03;;;7.51;81.41
4024;BME280;2026;51.002;13.668;2023-04-09T21:32:31;99942.72;;;7.54;81.11
4024;BME280;2026;51.002;13.668;2023-04-09T21:37:35;99950.84;;;7.59;80.73
4024;BME280;2026;51.002;13.668;2023-04-09T21:42:38;99941.22;;;7.60;82.32
4024;BME280;2026;51.002;13.668;2023-04-09T21:47:42;99940.47;;;7.43;82.82
4024;BME280;2026;51.002;13.668;2023-04-09T21:52:46;99932.50;;;7.44;83.20
4024;BME280;2026;51.002;13.668;2023-04-09T21:57:49;99933.00;;;7.40;82.82
4024;BME280;2026;51.002;13.668;2023-04-09T22:02:55;99935.75;;;7.38;82.76
4024;BME280;2026;51.002;13.668;2023-04-09T22:08:02;99938.72;;;7.35;82.51
4024;BME280;2026;51.002;13.668;2023-04-09T22:13:05;99939.72;;;7.26;83.63
4024;BME280;2026;51.002;13.668;2023-04-09T22:18:09;99928.38;;;7.10;83.61
4024;BME280;2026;51.002;13.668;2023-04-09T22:23:12;99929.31;;;6.93;83.61
4024;BME280;2026;51.002;13.668;2023-04-09T22:28:15;99929.03;;;6.79;84.76
4024;BME280;2026;51.002;13.668;2023-04-09T22:33:19;99937.50;;;6.81;83.15
4024;BME280;2026;51.002;13.668;2023-04-09T22:38:22;99937.19;;;6.59;84.49
4024;BME280;2026;51.002;13.668;2023-04-09T22:43:26;99930.66;;;6.47;85.02
4024;BME280;2026;51.002;13.668;2023-04-09T22:48:30;99927.75;;;6.42;84.09
4024;BME280;2026;51.002;13.668;2023-04-09T22:53:41;99925.00;;;6.43;84.33
4024;BME280;2026;51.002;13.668;2023-04-09T22:58:44;99937.81;;;6.28;84.55
4024;BME280;2026;51.002;13.668;2023-04-09T23:03:48;99934.84;;;6.06;85.55
4024;BME280;2026;51.002;13.668;2023-04-09T23:08:52;99942.66;;;5.98;85.69
4024;BME280;2026;51.002;13.668;2023-04-09T23:13:55;99934.81;;;5.90;86.60
4024;BME280;2026;51.002;13.668;2023-04-09T23:18:59;99922.63;;;5.90;86.41
4024;BME280;2026;51.002;13.668;2023-04-09T23:24:02;99925.31;;;5.64;86.55
4024;BME280;2026;51.002;13.668;2023-04-09T23:29:05;99914.44;;;5.69;86.20
4024;BME280;2026;51.002;13.668;2023-04-09T23:34:10;99906.13;;;5.65;86.15
4024;BME280;2026;51.002;13.668;2023-04-09T23:39:13;99913.59;;;5.60;86.25
4024;BME280;2026;51.002;13.668;2023-04-09T23:44:16;99919.09;;;5.48;85.86
4024;BME280;2026;51.002;13.668;2023-04-09T23:49:20;99929.00;;;5.45;86.44
4024;BME280;2026;51.002;13.668;2023-04-09T23:54:23;99931.69;;;5.35;86.79
4024;BME280;2026;51.002;13.668;2023-04-09T23:59:26;99923.22;;;5.24;86.79
